Terminal Aerodrome Forecast
Issued by NWS Portland, OR

Home | Current Version | Previous Version | Text Only | Print | Product List | Glossary On
Versions: 1 2 3 4 5 6 7 8 9 10 11 12 13 14 15 16 17 18
000
FTUS46 KPQR 062346
TAFEUG
TAF
KEUG 062346Z 0700/0724 02012G18KT P6SM FEW060
     FM070400 36007KT P6SM FEW250
     FM070800 34004KT P6SM FEW250
     FM072100 35011KT P6SM FEW250=

USA.gov is the U.S. government's official web portal to all federal, state and local government web resources and services.